AFL3110 USSS-UIII
Flight info
| Callsign | AFL3110 |
|---|---|
| Flight time | 3h 32m |
| Altitude | 39000 |
| Route | USSS DOSUM6J DOSUM T377 SALER N992 NH R372 ADONI A300 ROTLI N869 RO A817 RUSAM G490 NH NH4B UIII |
| Aircraft | B77W/H-SDE1E2E3FGHIJ2J3J4J5M1RWXY/LB1D1 |
Departure
| Time | 2026-04-28 19:32 |
|---|---|
| Airport | Koltsovo Airport (USSS) |
Arrival
| Time | 2026-04-28 23:05 |
|---|---|
| Airport | Irkutsk International Airport (UIII) |
| Time | Latitude | Longitude | Altitude | Speed | Heading |
|---|---|---|---|---|---|
| 2026-04-28 18:35 | 56.74924 | 60.80409 | 786 ft | 0 kts | 360° |
| 2026-04-28 19:18 | 56.74903 | 60.80409 | 780 ft | 4 kts | 3° |
| 2026-04-28 19:18 | 56.74879 | 60.80406 | 780 ft | 3 kts | 11° |
| 2026-04-28 19:18 | 56.74865 | 60.80399 | 780 ft | 2 kts | 32° |
| 2026-04-28 19:19 | 56.74857 | 60.80385 | 780 ft | 2 kts | 67° |
| 2026-04-28 19:19 | 56.74854 | 60.80366 | 780 ft | 2 kts | 84° |
| 2026-04-28 19:19 | 56.74853 | 60.80345 | 782 ft | 2 kts | 89° |
| 2026-04-28 19:19 | 56.74853 | 60.80332 | 780 ft | 0 kts | 90° |
| 2026-04-28 19:20 | 56.74853 | 60.80333 | 780 ft | 0 kts | 90° |
| 2026-04-28 19:21 | 56.74853 | 60.80337 | 783 ft | 0 kts | 90° |
| 2026-04-28 19:21 | 56.74853 | 60.80345 | 782 ft | 1 kts | 90° |
| 2026-04-28 19:21 | 56.74853 | 60.80357 | 781 ft | 1 kts | 90° |
| 2026-04-28 19:21 | 56.74853 | 60.80374 | 780 ft | 3 kts | 90° |
| 2026-04-28 19:22 | 56.74853 | 60.80434 | 780 ft | 5 kts | 90° |
| 2026-04-28 19:22 | 56.74853 | 60.80455 | 780 ft | 5 kts | 90° |
| 2026-04-28 19:22 | 56.74854 | 60.80560 | 779 ft | 5 kts | 90° |
| 2026-04-28 19:22 | 56.74854 | 60.80623 | 779 ft | 5 kts | 90° |
| 2026-04-28 19:23 | 56.74854 | 60.80690 | 779 ft | 6 kts | 90° |
| 2026-04-28 19:23 | 56.74854 | 60.80760 | 779 ft | 6 kts | 90° |
| 2026-04-28 19:23 | 56.74854 | 60.80830 | 779 ft | 6 kts | 90° |
| 2026-04-28 19:23 | 56.74854 | 60.80900 | 779 ft | 6 kts | 90° |
| 2026-04-28 19:24 | 56.74854 | 60.80971 | 779 ft | 6 kts | 91° |
| 2026-04-28 19:24 | 56.74853 | 60.81048 | 779 ft | 6 kts | 90° |
| 2026-04-28 19:24 | 56.74861 | 60.81124 | 779 ft | 6 kts | 79° |
| 2026-04-28 19:24 | 56.74863 | 60.81203 | 779 ft | 6 kts | 91° |
| 2026-04-28 19:25 | 56.74862 | 60.81283 | 779 ft | 6 kts | 91° |
| 2026-04-28 19:25 | 56.74862 | 60.81364 | 779 ft | 6 kts | 91° |
| 2026-04-28 19:25 | 56.74862 | 60.81445 | 779 ft | 7 kts | 89° |
| 2026-04-28 19:25 | 56.74862 | 60.81602 | 779 ft | 14 kts | 90° |
| 2026-04-28 19:26 | 56.74862 | 60.81784 | 779 ft | 14 kts | 90° |
| 2026-04-28 19:26 | 56.74834 | 60.81947 | 779 ft | 14 kts | 117° |
| 2026-04-28 19:26 | 56.74790 | 60.82100 | 780 ft | 13 kts | 117° |
| 2026-04-28 19:26 | 56.74762 | 60.82182 | 780 ft | 6 kts | 141° |
| 2026-04-28 19:27 | 56.74719 | 60.82197 | 780 ft | 7 kts | 176° |
| 2026-04-28 19:27 | 56.74632 | 60.82200 | 780 ft | 17 kts | 180° |
| 2026-04-28 19:27 | 56.74554 | 60.82199 | 779 ft | 17 kts | 180° |
| 2026-04-28 19:27 | 56.74395 | 60.82192 | 780 ft | 17 kts | 184° |
| 2026-04-28 19:28 | 56.74275 | 60.82176 | 780 ft | 17 kts | 184° |
| 2026-04-28 19:28 | 56.74211 | 60.82166 | 780 ft | 6 kts | 185° |
| 2026-04-28 19:28 | 56.74204 | 60.82165 | 780 ft | 0 kts | 185° |
| 2026-04-28 19:28 | 56.74203 | 60.82165 | 780 ft | 0 kts | 185° |
| 2026-04-28 19:29 | 56.74202 | 60.82164 | 780 ft | 0 kts | 185° |
| 2026-04-28 19:29 | 56.74201 | 60.82164 | 779 ft | 0 kts | 185° |
| 2026-04-28 19:29 | 56.74197 | 60.82164 | 779 ft | 1 kts | 185° |
| 2026-04-28 19:30 | 56.74191 | 60.82163 | 779 ft | 1 kts | 185° |
| 2026-04-28 19:30 | 56.74183 | 60.82161 | 779 ft | 1 kts | 185° |
| 2026-04-28 19:30 | 56.74174 | 60.82160 | 779 ft | 1 kts | 185° |
| 2026-04-28 19:30 | 56.74151 | 60.82156 | 779 ft | 10 kts | 185° |
| 2026-04-28 19:31 | 56.74078 | 60.82132 | 780 ft | 11 kts | 213° |
| 2026-04-28 19:31 | 56.74069 | 60.82000 | 779 ft | 11 kts | 275° |
| 2026-04-28 19:31 | 56.74070 | 60.81987 | 779 ft | 0 kts | 275° |
| 2026-04-28 19:31 | 56.74080 | 60.81773 | 780 ft | 54 kts | 274° |
| 2026-04-28 19:32 | 56.74127 | 60.80576 | 779 ft | 130 kts | 273° |
| 2026-04-28 19:32 | 56.74222 | 60.78289 | 889 ft | 224 kts | 272° |
| 2026-04-28 19:32 | 56.74326 | 60.75249 | 2221 ft | 242 kts | 271° |
| 2026-04-28 19:32 | 56.74441 | 60.72340 | 4313 ft | 218 kts | 270° |
| 2026-04-28 19:33 | 56.74465 | 60.69607 | 5487 ft | 218 kts | 267° |
| 2026-04-28 19:33 | 56.74446 | 60.66751 | 6188 ft | 233 kts | 267° |
| 2026-04-28 19:33 | 56.74424 | 60.63735 | 6973 ft | 242 kts | 266° |
| 2026-04-28 19:33 | 56.74384 | 60.60634 | 7771 ft | 248 kts | 265° |
| 2026-04-28 19:34 | 56.74331 | 60.57353 | 7454 ft | 266 kts | 265° |
| 2026-04-28 19:34 | 56.74231 | 60.54007 | 7264 ft | 260 kts | 264° |
| 2026-04-28 19:34 | 56.73984 | 60.50865 | 7224 ft | 244 kts | 252° |
| 2026-04-28 19:34 | 56.73186 | 60.48233 | 7102 ft | 237 kts | 227° |
| 2026-04-28 19:35 | 56.71763 | 60.46636 | 7052 ft | 250 kts | 200° |
| 2026-04-28 19:35 | 56.69996 | 60.46372 | 7060 ft | 263 kts | 177° |
| 2026-04-28 19:35 | 56.68206 | 60.47191 | 7181 ft | 268 kts | 167° |
| 2026-04-28 19:35 | 56.66466 | 60.48447 | 7300 ft | 271 kts | 161° |
| 2026-04-28 19:36 | 56.64805 | 60.50037 | 7444 ft | 273 kts | 154° |
| 2026-04-28 19:36 | 56.63276 | 60.52110 | 7656 ft | 277 kts | 143° |
| 2026-04-28 19:36 | 56.62103 | 60.54880 | 7774 ft | 283 kts | 118° |
| 2026-04-28 19:36 | 56.61617 | 60.58393 | 7761 ft | 298 kts | 95° |
| 2026-04-28 19:37 | 56.61963 | 60.62121 | 7804 ft | 302 kts | 70° |
| 2026-04-28 19:37 | 56.62604 | 60.64368 | 7864 ft | 303 kts | 55° |
| 2026-04-28 19:37 | 56.64576 | 60.67989 | 7968 ft | 301 kts | 39° |
| 2026-04-28 19:37 | 56.66201 | 60.70445 | 7920 ft | 306 kts | 38° |
| 2026-04-28 19:38 | 56.67876 | 60.72847 | 8055 ft | 305 kts | 37° |
| 2026-04-28 19:38 | 56.69557 | 60.75195 | 8221 ft | 304 kts | 35° |
| 2026-04-28 19:38 | 56.71231 | 60.77533 | 8354 ft | 301 kts | 37° |
| 2026-04-28 19:38 | 56.72680 | 60.80209 | 8431 ft | 303 kts | 53° |
| 2026-04-28 19:39 | 56.73745 | 60.83564 | 8490 ft | 302 kts | 68° |
| 2026-04-28 19:39 | 56.74414 | 60.87136 | 8562 ft | 301 kts | 80° |
| 2026-04-28 19:39 | 56.74781 | 60.90869 | 8622 ft | 300 kts | 87° |
| 2026-04-28 19:39 | 56.75017 | 60.94647 | 8684 ft | 300 kts | 83° |
| 2026-04-28 19:40 | 56.75501 | 60.98378 | 8714 ft | 304 kts | 75° |
| 2026-04-28 19:40 | 56.76508 | 61.01793 | 8706 ft | 311 kts | 50° |
| 2026-04-28 19:40 | 56.78172 | 61.04301 | 8768 ft | 311 kts | 27° |
| 2026-04-28 19:40 | 56.80166 | 61.05687 | 8917 ft | 303 kts | 12° |
| 2026-04-28 19:41 | 56.82198 | 61.06699 | 9057 ft | 303 kts | 12° |
| 2026-04-28 19:41 | 56.84233 | 61.07744 | 9103 ft | 308 kts | 15° |
| 2026-04-28 19:41 | 56.86268 | 61.09226 | 8821 ft | 318 kts | 23° |
| 2026-04-28 19:41 | 56.88237 | 61.11028 | 8554 ft | 315 kts | 26° |
| 2026-04-28 19:42 | 56.90159 | 61.12917 | 8301 ft | 311 kts | 26° |
| 2026-04-28 19:42 | 56.92050 | 61.14799 | 8034 ft | 308 kts | 26° |
| 2026-04-28 19:42 | 56.93920 | 61.16652 | 7761 ft | 304 kts | 25° |
| 2026-04-28 19:42 | 56.95180 | 61.17740 | 7594 ft | 301 kts | 19° |
| 2026-04-28 19:43 | 56.97783 | 61.19488 | 7276 ft | 294 kts | 15° |
| 2026-04-28 19:43 | 56.99696 | 61.20684 | 7180 ft | 289 kts | 15° |
| 2026-04-28 19:43 | 57.01583 | 61.21869 | 7130 ft | 293 kts | 16° |
| 2026-04-28 19:43 | 57.03523 | 61.23109 | 7097 ft | 297 kts | 16° |
| 2026-04-28 19:44 | 57.05470 | 61.24371 | 7078 ft | 296 kts | 16° |
| 2026-04-28 19:44 | 57.07406 | 61.25641 | 7058 ft | 295 kts | 16° |
| 2026-04-28 19:44 | 57.09332 | 61.26914 | 7066 ft | 293 kts | 17° |
| 2026-04-28 19:44 | 57.11248 | 61.28186 | 7067 ft | 292 kts | 17° |
| 2026-04-28 19:45 | 57.13163 | 61.29459 | 7073 ft | 292 kts | 17° |
| 2026-04-28 19:45 | 57.15074 | 61.30733 | 7084 ft | 292 kts | 17° |
| 2026-04-28 19:45 | 57.16986 | 61.32009 | 7074 ft | 292 kts | 17° |
| 2026-04-28 19:45 | 57.18899 | 61.33288 | 7071 ft | 292 kts | 17° |
| 2026-04-28 19:46 | 57.20809 | 61.34566 | 7073 ft | 292 kts | 17° |
| 2026-04-28 19:46 | 57.22720 | 61.35845 | 7070 ft | 292 kts | 17° |
| 2026-04-28 19:46 | 57.24632 | 61.37128 | 7068 ft | 293 kts | 17° |
| 2026-04-28 19:46 | 57.26547 | 61.38416 | 7067 ft | 293 kts | 17° |
| 2026-04-28 19:47 | 57.28368 | 61.40029 | 7052 ft | 291 kts | 38° |
| 2026-04-28 19:47 | 57.29610 | 61.42963 | 7072 ft | 294 kts | 66° |
| 2026-04-28 19:47 | 57.30408 | 61.46479 | 7088 ft | 300 kts | 69° |
| 2026-04-28 19:47 | 57.31205 | 61.50070 | 7067 ft | 302 kts | 69° |
| 2026-04-28 19:48 | 57.32002 | 61.53650 | 7059 ft | 299 kts | 69° |
| 2026-04-28 19:48 | 57.32789 | 61.57191 | 7060 ft | 297 kts | 69° |
| 2026-04-28 19:48 | 57.33572 | 61.60713 | 7058 ft | 295 kts | 69° |
| 2026-04-28 19:48 | 57.34351 | 61.64214 | 7061 ft | 294 kts | 69° |
| 2026-04-28 19:49 | 57.35129 | 61.67711 | 7059 ft | 294 kts | 69° |
| 2026-04-28 19:49 | 57.35907 | 61.71211 | 7072 ft | 294 kts | 69° |
| 2026-04-28 19:49 | 57.36689 | 61.74728 | 7086 ft | 296 kts | 69° |
| 2026-04-28 19:49 | 57.37473 | 61.78259 | 7075 ft | 298 kts | 69° |
| 2026-04-28 19:50 | 57.39054 | 61.85397 | 7063 ft | 300 kts | 69° |
| 2026-04-28 19:50 | 57.39848 | 61.88988 | 7385 ft | 302 kts | 70° |
| 2026-04-28 19:50 | 57.40649 | 61.92615 | 8370 ft | 305 kts | 71° |
| 2026-04-28 19:51 | 57.41443 | 61.96219 | 9432 ft | 307 kts | 72° |
| 2026-04-28 19:51 | 57.42267 | 61.99970 | 10340 ft | 313 kts | 73° |
| 2026-04-28 19:51 | 57.43090 | 62.03730 | 11060 ft | 324 kts | 73° |
| 2026-04-28 19:51 | 57.43952 | 62.07668 | 11801 ft | 334 kts | 74° |
| 2026-04-28 19:52 | 57.44836 | 62.11712 | 12602 ft | 342 kts | 74° |
| 2026-04-28 19:52 | 57.45742 | 62.15861 | 13404 ft | 352 kts | 75° |
| 2026-04-28 19:52 | 57.46670 | 62.20131 | 14168 ft | 360 kts | 75° |
| 2026-04-28 19:52 | 57.47587 | 62.24496 | 14954 ft | 364 kts | 77° |
| 2026-04-28 19:53 | 57.48459 | 62.28925 | 15816 ft | 367 kts | 77° |
| 2026-04-28 19:53 | 57.49326 | 62.33427 | 16644 ft | 372 kts | 77° |
| 2026-04-28 19:53 | 57.50201 | 62.37994 | 17462 ft | 378 kts | 77° |
| 2026-04-28 19:53 | 57.51090 | 62.42631 | 18281 ft | 384 kts | 77° |
| 2026-04-28 19:54 | 57.51994 | 62.47337 | 19009 ft | 390 kts | 77° |
| 2026-04-28 19:54 | 57.52926 | 62.52203 | 19375 ft | 410 kts | 77° |
| 2026-04-28 19:54 | 57.53908 | 62.57352 | 19526 ft | 434 kts | 76° |
| 2026-04-28 19:54 | 57.54946 | 62.62797 | 19704 ft | 458 kts | 76° |
| 2026-04-28 19:55 | 57.56037 | 62.68496 | 20023 ft | 475 kts | 76° |
| 2026-04-28 19:55 | 57.57161 | 62.74349 | 20580 ft | 485 kts | 76° |
| 2026-04-28 19:55 | 57.58305 | 62.80303 | 21284 ft | 490 kts | 75° |
| 2026-04-28 19:55 | 57.59454 | 62.86298 | 22062 ft | 493 kts | 76° |
| 2026-04-28 19:56 | 57.60606 | 62.92342 | 22843 ft | 497 kts | 76° |
| 2026-04-28 19:56 | 57.61765 | 62.98453 | 23550 ft | 502 kts | 76° |
| 2026-04-28 19:56 | 57.62928 | 63.04623 | 24129 ft | 507 kts | 76° |
| 2026-04-28 19:56 | 57.64098 | 63.10855 | 24652 ft | 512 kts | 76° |
| 2026-04-28 19:57 | 57.65274 | 63.17144 | 25211 ft | 515 kts | 76° |
| 2026-04-28 19:57 | 57.66455 | 63.23477 | 25779 ft | 520 kts | 76° |
| 2026-04-28 19:57 | 57.67645 | 63.29879 | 26289 ft | 524 kts | 76° |
| 2026-04-28 19:57 | 57.68842 | 63.36338 | 26803 ft | 529 kts | 76° |
| 2026-04-28 19:58 | 57.70047 | 63.42863 | 27310 ft | 533 kts | 77° |
| 2026-04-28 19:58 | 57.71258 | 63.49443 | 27798 ft | 537 kts | 77° |
| 2026-04-28 19:58 | 57.72475 | 63.56080 | 28278 ft | 541 kts | 77° |
| 2026-04-28 19:58 | 57.73697 | 63.62767 | 28732 ft | 545 kts | 77° |
| 2026-04-28 19:59 | 57.74924 | 63.69510 | 29109 ft | 549 kts | 77° |
| 2026-04-28 19:59 | 57.76156 | 63.76303 | 29469 ft | 554 kts | 77° |
| 2026-04-28 19:59 | 57.77396 | 63.83156 | 29919 ft | 556 kts | 77° |
| 2026-04-28 19:59 | 57.78632 | 63.90007 | 30430 ft | 555 kts | 77° |
| 2026-04-28 20:00 | 57.79861 | 63.96843 | 30984 ft | 552 kts | 77° |
| 2026-04-28 20:00 | 57.81082 | 64.03656 | 31538 ft | 550 kts | 77° |
| 2026-04-28 20:00 | 57.82280 | 64.10424 | 32039 ft | 548 kts | 78° |
| 2026-04-28 20:00 | 57.83295 | 64.17280 | 32507 ft | 542 kts | 84° |
| 2026-04-28 20:01 | 57.83983 | 64.24207 | 32966 ft | 538 kts | 87° |
| 2026-04-28 20:01 | 57.84589 | 64.31117 | 33442 ft | 536 kts | 87° |
| 2026-04-28 20:01 | 57.85176 | 64.38020 | 33847 ft | 535 kts | 87° |
| 2026-04-28 20:01 | 57.85763 | 64.44913 | 34254 ft | 535 kts | 87° |
| 2026-04-28 20:02 | 57.86354 | 64.51729 | 34622 ft | 534 kts | 86° |
| 2026-04-28 20:02 | 57.86966 | 64.58688 | 35015 ft | 533 kts | 86° |
| 2026-04-28 20:02 | 57.87565 | 64.65443 | 35397 ft | 531 kts | 86° |
| 2026-04-28 20:02 | 57.88179 | 64.72368 | 35769 ft | 530 kts | 86° |
| 2026-04-28 20:03 | 57.88774 | 64.79103 | 36121 ft | 529 kts | 86° |
| 2026-04-28 20:03 | 57.89371 | 64.85924 | 36435 ft | 528 kts | 86° |
| 2026-04-28 20:03 | 57.89963 | 64.92734 | 36793 ft | 527 kts | 86° |
| 2026-04-28 20:03 | 57.90548 | 64.99529 | 37121 ft | 526 kts | 86° |
| 2026-04-28 20:04 | 57.91128 | 65.06309 | 37435 ft | 525 kts | 86° |
| 2026-04-28 20:04 | 57.91703 | 65.13090 | 37735 ft | 525 kts | 86° |
| 2026-04-28 20:04 | 57.92274 | 65.19858 | 38058 ft | 523 kts | 86° |
| 2026-04-28 20:04 | 57.92841 | 65.26612 | 38424 ft | 521 kts | 85° |
| 2026-04-28 20:05 | 57.93402 | 65.33333 | 38767 ft | 519 kts | 85° |
| 2026-04-28 20:05 | 57.93957 | 65.40040 | 38932 ft | 520 kts | 85° |
| 2026-04-28 20:05 | 57.94511 | 65.46801 | 38954 ft | 524 kts | 85° |
| 2026-04-28 20:06 | 57.95615 | 65.60393 | 39033 ft | 526 kts | 85° |
| 2026-04-28 20:06 | 57.96707 | 65.73979 | 39028 ft | 523 kts | 85° |
| 2026-04-28 20:07 | 57.97781 | 65.87520 | 39036 ft | 522 kts | 86° |
| 2026-04-28 20:07 | 57.98828 | 66.01033 | 39040 ft | 520 kts | 86° |
| 2026-04-28 20:08 | 57.99836 | 66.14525 | 39030 ft | 519 kts | 86° |
| 2026-04-28 20:08 | 58.00828 | 66.27998 | 39039 ft | 518 kts | 86° |
| 2026-04-28 20:09 | 58.01809 | 66.41461 | 39048 ft | 518 kts | 86° |
| 2026-04-28 20:09 | 58.02771 | 66.54858 | 39046 ft | 519 kts | 86° |
| 2026-04-28 20:10 | 58.03726 | 66.68364 | 39050 ft | 519 kts | 86° |
| 2026-04-28 20:10 | 58.04669 | 66.81867 | 39020 ft | 519 kts | 87° |
| 2026-04-28 20:11 | 58.05607 | 66.95350 | 39058 ft | 518 kts | 86° |
| 2026-04-28 20:11 | 58.06562 | 67.08819 | 39063 ft | 517 kts | 86° |
| 2026-04-28 20:12 | 58.07504 | 67.22298 | 39069 ft | 517 kts | 87° |
| 2026-04-28 20:12 | 58.08428 | 67.35787 | 39064 ft | 517 kts | 87° |
| 2026-04-28 20:13 | 58.09336 | 67.49275 | 39069 ft | 517 kts | 87° |
| 2026-04-28 20:13 | 58.10227 | 67.62746 | 39083 ft | 517 kts | 87° |
| 2026-04-28 20:14 | 58.10940 | 67.73975 | 39080 ft | 517 kts | 88° |
| 2026-04-28 20:14 | 58.11779 | 67.87485 | 39095 ft | 517 kts | 88° |
| 2026-04-28 20:15 | 58.12741 | 68.03204 | 39078 ft | 517 kts | 87° |
| 2026-04-28 20:15 | 58.13426 | 68.14533 | 39096 ft | 517 kts | 88° |
| 2026-04-28 20:16 | 58.14200 | 68.28056 | 39110 ft | 515 kts | 90° |
| 2026-04-28 20:16 | 58.14350 | 68.41487 | 39105 ft | 512 kts | 95° |
| 2026-04-28 20:17 | 58.14343 | 68.54978 | 39098 ft | 512 kts | 95° |
| 2026-04-28 20:17 | 58.14357 | 68.68454 | 39105 ft | 512 kts | 94° |
| 2026-04-28 20:18 | 58.14386 | 68.81917 | 39112 ft | 511 kts | 94° |
| 2026-04-28 20:18 | 58.14402 | 68.95360 | 39116 ft | 510 kts | 94° |
| 2026-04-28 20:19 | 58.14403 | 69.08782 | 39105 ft | 508 kts | 94° |
| 2026-04-28 20:19 | 58.14388 | 69.22146 | 39119 ft | 507 kts | 94° |
| 2026-04-28 20:20 | 58.14362 | 69.35406 | 39122 ft | 506 kts | 94° |
| 2026-04-28 20:20 | 58.14322 | 69.48730 | 39136 ft | 506 kts | 95° |
| 2026-04-28 20:21 | 58.14269 | 69.62053 | 39135 ft | 506 kts | 95° |
| 2026-04-28 20:21 | 58.14202 | 69.75372 | 39137 ft | 506 kts | 95° |
| 2026-04-28 20:22 | 58.14121 | 69.88693 | 39141 ft | 506 kts | 95° |
| 2026-04-28 20:22 | 58.14026 | 70.02024 | 39142 ft | 507 kts | 95° |
| 2026-04-28 20:23 | 58.13918 | 70.15364 | 39152 ft | 507 kts | 95° |
| 2026-04-28 20:23 | 58.13795 | 70.28740 | 39157 ft | 508 kts | 95° |
| 2026-04-28 20:24 | 58.13658 | 70.42125 | 39157 ft | 509 kts | 95° |
| 2026-04-28 20:24 | 58.13506 | 70.55527 | 39158 ft | 509 kts | 95° |
| 2026-04-28 20:25 | 58.13341 | 70.68933 | 39157 ft | 510 kts | 95° |
| 2026-04-28 20:25 | 58.13162 | 70.82326 | 39159 ft | 509 kts | 95° |
| 2026-04-28 20:26 | 58.12970 | 70.95636 | 39168 ft | 509 kts | 95° |
| 2026-04-28 20:26 | 58.12763 | 71.09006 | 39171 ft | 508 kts | 95° |
| 2026-04-28 20:27 | 58.12542 | 71.22385 | 39169 ft | 508 kts | 95° |
| 2026-04-28 20:27 | 58.12307 | 71.35735 | 39170 ft | 508 kts | 95° |
| 2026-04-28 20:28 | 58.12058 | 71.49115 | 39178 ft | 508 kts | 95° |
| 2026-04-28 20:28 | 58.11795 | 71.62469 | 39192 ft | 508 kts | 96° |
| 2026-04-28 20:29 | 58.11518 | 71.75836 | 39189 ft | 509 kts | 96° |
| 2026-04-28 20:29 | 58.11227 | 71.89213 | 39193 ft | 509 kts | 96° |
| 2026-04-28 20:30 | 58.10921 | 72.02594 | 39190 ft | 509 kts | 96° |
| 2026-04-28 20:30 | 58.10602 | 72.15989 | 39211 ft | 510 kts | 96° |
| 2026-04-28 20:31 | 58.10270 | 72.29291 | 39215 ft | 510 kts | 96° |
| 2026-04-28 20:31 | 58.09923 | 72.42713 | 39212 ft | 510 kts | 96° |
| 2026-04-28 20:32 | 58.09563 | 72.56119 | 39212 ft | 510 kts | 96° |
| 2026-04-28 20:32 | 58.09202 | 72.69527 | 39217 ft | 510 kts | 95° |
| 2026-04-28 20:33 | 58.08838 | 72.82913 | 39225 ft | 510 kts | 96° |
| 2026-04-28 20:33 | 58.08460 | 72.96289 | 39233 ft | 509 kts | 96° |
| 2026-04-28 20:34 | 58.08069 | 73.09576 | 39235 ft | 509 kts | 96° |
| 2026-04-28 20:34 | 58.07660 | 73.22923 | 39232 ft | 509 kts | 95° |
| 2026-04-28 20:35 | 58.07239 | 73.36260 | 39240 ft | 508 kts | 96° |
| 2026-04-28 20:35 | 58.06804 | 73.49572 | 39239 ft | 508 kts | 96° |
| 2026-04-28 20:36 | 58.06356 | 73.62893 | 39244 ft | 508 kts | 96° |
| 2026-04-28 20:36 | 58.05893 | 73.76195 | 39245 ft | 508 kts | 96° |
| 2026-04-28 20:37 | 58.05416 | 73.89497 | 39248 ft | 508 kts | 96° |
| 2026-04-28 20:37 | 58.04926 | 74.02785 | 39253 ft | 507 kts | 96° |
| 2026-04-28 20:38 | 58.04424 | 74.16060 | 39248 ft | 506 kts | 95° |
| 2026-04-28 20:38 | 58.03907 | 74.29319 | 39259 ft | 506 kts | 96° |
| 2026-04-28 20:39 | 58.03382 | 74.42459 | 39266 ft | 505 kts | 96° |
| 2026-04-28 20:39 | 58.02839 | 74.55666 | 39271 ft | 504 kts | 96° |
| 2026-04-28 20:40 | 58.02285 | 74.68838 | 39274 ft | 503 kts | 96° |
| 2026-04-28 20:40 | 58.01718 | 74.81993 | 39274 ft | 502 kts | 96° |
| 2026-04-28 20:41 | 58.01138 | 74.95115 | 39288 ft | 502 kts | 96° |
| 2026-04-28 20:41 | 58.00546 | 75.08206 | 39285 ft | 501 kts | 96° |
| 2026-04-28 20:42 | 57.99940 | 75.21299 | 39292 ft | 500 kts | 96° |
| 2026-04-28 20:42 | 57.99322 | 75.34370 | 39288 ft | 500 kts | 96° |
| 2026-04-28 20:43 | 57.98691 | 75.47427 | 39294 ft | 499 kts | 96° |
| 2026-04-28 20:43 | 57.98048 | 75.60457 | 39298 ft | 499 kts | 96° |
| 2026-04-28 20:44 | 57.97393 | 75.73481 | 39305 ft | 499 kts | 96° |
| 2026-04-28 20:44 | 57.96745 | 75.86402 | 39287 ft | 499 kts | 95° |
| 2026-04-28 20:45 | 57.96134 | 75.99403 | 39303 ft | 498 kts | 95° |
| 2026-04-28 20:45 | 57.95520 | 76.12417 | 39308 ft | 499 kts | 95° |
| 2026-04-28 20:46 | 57.94887 | 76.25422 | 39318 ft | 499 kts | 96° |
| 2026-04-28 20:46 | 57.94235 | 76.38430 | 39318 ft | 499 kts | 96° |
| 2026-04-28 20:47 | 57.93567 | 76.51455 | 39325 ft | 499 kts | 95° |
| 2026-04-28 20:47 | 57.92890 | 76.64413 | 39320 ft | 500 kts | 96° |
| 2026-04-28 20:48 | 57.92196 | 76.77433 | 39326 ft | 500 kts | 96° |
| 2026-04-28 20:48 | 57.91488 | 76.90453 | 39326 ft | 500 kts | 96° |
| 2026-04-28 20:49 | 57.90769 | 77.03448 | 39334 ft | 500 kts | 96° |
| 2026-04-28 20:49 | 57.90034 | 77.16466 | 39334 ft | 500 kts | 96° |
| 2026-04-28 20:50 | 57.89288 | 77.29460 | 39338 ft | 500 kts | 96° |
| 2026-04-28 20:50 | 57.88528 | 77.42452 | 39336 ft | 500 kts | 96° |
| 2026-04-28 20:51 | 57.87755 | 77.55429 | 39337 ft | 500 kts | 96° |
| 2026-04-28 20:51 | 57.86968 | 77.68400 | 39337 ft | 499 kts | 96° |
| 2026-04-28 20:52 | 57.86169 | 77.81365 | 39347 ft | 499 kts | 96° |
| 2026-04-28 20:52 | 57.85364 | 77.94208 | 39344 ft | 499 kts | 96° |
| 2026-04-28 20:53 | 57.84123 | 78.13605 | 39344 ft | 498 kts | 96° |
| 2026-04-28 20:53 | 57.83281 | 78.26504 | 39353 ft | 498 kts | 96° |
| 2026-04-28 20:54 | 57.82424 | 78.39415 | 39364 ft | 498 kts | 96° |
| 2026-04-28 20:54 | 57.81555 | 78.52301 | 39365 ft | 498 kts | 96° |
| 2026-04-28 20:55 | 57.80674 | 78.65184 | 39359 ft | 497 kts | 97° |
| 2026-04-28 20:55 | 57.79788 | 78.77935 | 39360 ft | 496 kts | 97° |
| 2026-04-28 20:56 | 57.78882 | 78.90776 | 39361 ft | 496 kts | 97° |
| 2026-04-28 20:56 | 57.77966 | 79.03578 | 39378 ft | 495 kts | 97° |
| 2026-04-28 20:57 | 57.77036 | 79.16382 | 39371 ft | 495 kts | 97° |
| 2026-04-28 20:57 | 57.76097 | 79.29147 | 39370 ft | 495 kts | 97° |
| 2026-04-28 20:58 | 57.75145 | 79.41893 | 39362 ft | 494 kts | 97° |
| 2026-04-28 20:58 | 57.74182 | 79.54619 | 39374 ft | 493 kts | 97° |
| 2026-04-28 20:59 | 57.73209 | 79.67315 | 39386 ft | 493 kts | 97° |
| 2026-04-28 20:59 | 57.72128 | 79.79992 | 39382 ft | 494 kts | 99° |
| 2026-04-28 21:00 | 57.70820 | 79.92609 | 39383 ft | 494 kts | 99° |
| 2026-04-28 21:00 | 57.69513 | 80.05119 | 39390 ft | 494 kts | 99° |
| 2026-04-28 21:01 | 57.68221 | 80.17719 | 39385 ft | 494 kts | 99° |
| 2026-04-28 21:01 | 57.66925 | 80.30334 | 39401 ft | 494 kts | 99° |
| 2026-04-28 21:02 | 57.65614 | 80.42953 | 39393 ft | 494 kts | 99° |
| 2026-04-28 21:02 | 57.64293 | 80.55534 | 39391 ft | 494 kts | 99° |
| 2026-04-28 21:03 | 57.63193 | 80.66007 | 39390 ft | 494 kts | 99° |
| 2026-04-28 21:03 | 57.61866 | 80.78598 | 39393 ft | 494 kts | 99° |
| 2026-04-28 21:04 | 57.60525 | 80.91182 | 39390 ft | 494 kts | 99° |
| 2026-04-28 21:04 | 57.59173 | 81.03736 | 39401 ft | 494 kts | 99° |
| 2026-04-28 21:05 | 57.57807 | 81.16301 | 39398 ft | 494 kts | 99° |
| 2026-04-28 21:05 | 57.56436 | 81.28786 | 39398 ft | 494 kts | 99° |
| 2026-04-28 21:06 | 57.55046 | 81.41317 | 39399 ft | 494 kts | 99° |
| 2026-04-28 21:06 | 57.53643 | 81.53838 | 39398 ft | 494 kts | 99° |
| 2026-04-28 21:07 | 57.52226 | 81.66364 | 39413 ft | 494 kts | 99° |
| 2026-04-28 21:07 | 57.50799 | 81.78876 | 39404 ft | 495 kts | 99° |
| 2026-04-28 21:08 | 57.49357 | 81.91390 | 39403 ft | 494 kts | 99° |
| 2026-04-28 21:08 | 57.47905 | 82.03873 | 39406 ft | 494 kts | 99° |
| 2026-04-28 21:09 | 57.46440 | 82.16348 | 39404 ft | 494 kts | 99° |
| 2026-04-28 21:09 | 57.44963 | 82.28813 | 39420 ft | 494 kts | 99° |
| 2026-04-28 21:10 | 57.43473 | 82.41276 | 39412 ft | 494 kts | 99° |
| 2026-04-28 21:10 | 57.41982 | 82.53637 | 39403 ft | 494 kts | 99° |
| 2026-04-28 21:11 | 57.40469 | 82.66067 | 39410 ft | 494 kts | 99° |
| 2026-04-28 21:11 | 57.38944 | 82.78484 | 39415 ft | 493 kts | 99° |
| 2026-04-28 21:12 | 57.37408 | 82.90883 | 39423 ft | 494 kts | 99° |
| 2026-04-28 21:12 | 57.35859 | 83.03275 | 39410 ft | 493 kts | 99° |
| 2026-04-28 21:13 | 57.34300 | 83.15648 | 39412 ft | 493 kts | 99° |
| 2026-04-28 21:13 | 57.32740 | 83.27916 | 39413 ft | 493 kts | 99° |
| 2026-04-28 21:14 | 57.31157 | 83.40258 | 39409 ft | 493 kts | 100° |
| 2026-04-28 21:14 | 57.29562 | 83.52591 | 39415 ft | 493 kts | 100° |
| 2026-04-28 21:15 | 57.27957 | 83.64900 | 39409 ft | 493 kts | 100° |
| 2026-04-28 21:15 | 57.26336 | 83.77230 | 39412 ft | 493 kts | 100° |
| 2026-04-28 21:16 | 57.24702 | 83.89551 | 39411 ft | 493 kts | 100° |
| 2026-04-28 21:16 | 57.23059 | 84.01845 | 39405 ft | 493 kts | 100° |
| 2026-04-28 21:17 | 57.21414 | 84.14043 | 39420 ft | 493 kts | 100° |
| 2026-04-28 21:17 | 57.19746 | 84.26325 | 39410 ft | 492 kts | 100° |
| 2026-04-28 21:18 | 57.18071 | 84.38553 | 39412 ft | 491 kts | 100° |
| 2026-04-28 21:18 | 57.16387 | 84.50751 | 39416 ft | 491 kts | 100° |
| 2026-04-28 21:19 | 57.14693 | 84.62942 | 39419 ft | 490 kts | 100° |
| 2026-04-28 21:19 | 57.12979 | 84.75010 | 39426 ft | 491 kts | 102° |
| 2026-04-28 21:20 | 57.10935 | 84.87012 | 39419 ft | 492 kts | 104° |
| 2026-04-28 21:20 | 57.08805 | 84.98961 | 39417 ft | 491 kts | 104° |
| 2026-04-28 21:21 | 57.06683 | 85.10906 | 39423 ft | 491 kts | 104° |
| 2026-04-28 21:21 | 57.04572 | 85.22831 | 39424 ft | 491 kts | 104° |
| 2026-04-28 21:22 | 57.02452 | 85.34754 | 39432 ft | 491 kts | 104° |
| 2026-04-28 21:22 | 57.00679 | 85.44662 | 39419 ft | 491 kts | 104° |
| 2026-04-28 21:23 | 56.98173 | 85.58575 | 39422 ft | 491 kts | 104° |
| 2026-04-28 21:23 | 56.96016 | 85.70460 | 39423 ft | 491 kts | 104° |
| 2026-04-28 21:24 | 56.93849 | 85.82328 | 39433 ft | 491 kts | 104° |
| 2026-04-28 21:24 | 56.91685 | 85.94123 | 39436 ft | 492 kts | 104° |
| 2026-04-28 21:25 | 56.89490 | 86.05992 | 39432 ft | 492 kts | 104° |
| 2026-04-28 21:25 | 56.87284 | 86.17849 | 39429 ft | 492 kts | 104° |
| 2026-04-28 21:26 | 56.85071 | 86.29680 | 39432 ft | 492 kts | 105° |
| 2026-04-28 21:26 | 56.82845 | 86.41514 | 39434 ft | 492 kts | 105° |
| 2026-04-28 21:27 | 56.80610 | 86.53325 | 39446 ft | 492 kts | 105° |
| 2026-04-28 21:27 | 56.78376 | 86.65056 | 39440 ft | 493 kts | 105° |
| 2026-04-28 21:28 | 56.76114 | 86.76861 | 39433 ft | 493 kts | 105° |
| 2026-04-28 21:28 | 56.73842 | 86.88645 | 39434 ft | 493 kts | 105° |
| 2026-04-28 21:29 | 56.71561 | 87.00410 | 39438 ft | 492 kts | 105° |
| 2026-04-28 21:29 | 56.69268 | 87.12157 | 39456 ft | 492 kts | 106° |
| 2026-04-28 21:30 | 56.66966 | 87.23887 | 39451 ft | 493 kts | 106° |
| 2026-04-28 21:30 | 56.64650 | 87.35612 | 39444 ft | 493 kts | 106° |
| 2026-04-28 21:31 | 56.62323 | 87.47324 | 39444 ft | 493 kts | 106° |
| 2026-04-28 21:31 | 56.59984 | 87.59026 | 39445 ft | 493 kts | 107° |
| 2026-04-28 21:32 | 56.57651 | 87.70632 | 39474 ft | 493 kts | 107° |
| 2026-04-28 21:32 | 56.55291 | 87.82305 | 39457 ft | 493 kts | 107° |
| 2026-04-28 21:33 | 56.52917 | 87.93975 | 39452 ft | 493 kts | 107° |
| 2026-04-28 21:33 | 56.50535 | 88.05617 | 39449 ft | 493 kts | 107° |
| 2026-04-28 21:34 | 56.48141 | 88.17248 | 39449 ft | 493 kts | 107° |
| 2026-04-28 21:34 | 56.45738 | 88.28858 | 39466 ft | 492 kts | 108° |
| 2026-04-28 21:35 | 56.43326 | 88.40449 | 39452 ft | 493 kts | 108° |
| 2026-04-28 21:35 | 56.40902 | 88.52026 | 39453 ft | 493 kts | 108° |
| 2026-04-28 21:36 | 56.38468 | 88.63587 | 39453 ft | 492 kts | 108° |
| 2026-04-28 21:36 | 56.36039 | 88.75073 | 39453 ft | 493 kts | 108° |
| 2026-04-28 21:37 | 56.33756 | 88.86693 | 39469 ft | 490 kts | 101° |
| 2026-04-28 21:37 | 56.32567 | 88.98735 | 39454 ft | 486 kts | 90° |
| 2026-04-28 21:38 | 56.32237 | 89.10887 | 39459 ft | 486 kts | 89° |
| 2026-04-28 21:38 | 56.31944 | 89.23083 | 39457 ft | 487 kts | 89° |
| 2026-04-28 21:39 | 56.31607 | 89.35295 | 39460 ft | 489 kts | 89° |
| 2026-04-28 21:39 | 56.31236 | 89.47529 | 39458 ft | 489 kts | 89° |
| 2026-04-28 21:40 | 56.30851 | 89.59697 | 39453 ft | 490 kts | 89° |
| 2026-04-28 21:40 | 56.30454 | 89.71936 | 39459 ft | 490 kts | 89° |
| 2026-04-28 21:41 | 56.30056 | 89.83824 | 39458 ft | 490 kts | 90° |
| 2026-04-28 21:41 | 56.29636 | 89.96073 | 39459 ft | 490 kts | 90° |
| 2026-04-28 21:42 | 56.29203 | 90.08330 | 39471 ft | 490 kts | 90° |
| 2026-04-28 21:42 | 56.28759 | 90.20549 | 39458 ft | 490 kts | 90° |
| 2026-04-28 21:43 | 56.28303 | 90.32786 | 39454 ft | 489 kts | 90° |
| 2026-04-28 21:43 | 56.27836 | 90.45024 | 39452 ft | 489 kts | 90° |
| 2026-04-28 21:44 | 56.27251 | 90.57149 | 39453 ft | 492 kts | 96° |
| 2026-04-28 21:44 | 56.25563 | 90.69113 | 39446 ft | 496 kts | 108° |
| 2026-04-28 21:45 | 56.23028 | 90.80665 | 39444 ft | 496 kts | 109° |
| 2026-04-28 21:45 | 56.20449 | 90.92152 | 39437 ft | 496 kts | 109° |
| 2026-04-28 21:46 | 56.17895 | 91.03653 | 39443 ft | 495 kts | 109° |
| 2026-04-28 21:46 | 56.15357 | 91.15138 | 39454 ft | 495 kts | 109° |
| 2026-04-28 21:47 | 56.12814 | 91.26608 | 39441 ft | 496 kts | 109° |
| 2026-04-28 21:47 | 56.10253 | 91.38083 | 39431 ft | 496 kts | 109° |
| 2026-04-28 21:48 | 56.07676 | 91.49560 | 39432 ft | 496 kts | 109° |
| 2026-04-28 21:48 | 56.05088 | 91.61017 | 39426 ft | 497 kts | 109° |
| 2026-04-28 21:49 | 56.02504 | 91.72401 | 39436 ft | 498 kts | 109° |
| 2026-04-28 21:49 | 55.99886 | 91.83870 | 39421 ft | 499 kts | 110° |
| 2026-04-28 21:50 | 55.97251 | 91.95353 | 39425 ft | 500 kts | 110° |
| 2026-04-28 21:50 | 55.94603 | 92.06828 | 39410 ft | 500 kts | 110° |
| 2026-04-28 21:51 | 55.91941 | 92.18305 | 39416 ft | 501 kts | 110° |
| 2026-04-28 21:51 | 55.89281 | 92.29713 | 39418 ft | 501 kts | 110° |
| 2026-04-28 21:52 | 55.86598 | 92.41167 | 39405 ft | 500 kts | 110° |
| 2026-04-28 21:52 | 55.83908 | 92.52589 | 39400 ft | 499 kts | 110° |
| 2026-04-28 21:53 | 55.81253 | 92.63989 | 39406 ft | 498 kts | 110° |
| 2026-04-28 21:53 | 55.78607 | 92.75384 | 39400 ft | 497 kts | 110° |
| 2026-04-28 21:54 | 55.76405 | 92.84818 | 39418 ft | 496 kts | 111° |
| 2026-04-28 21:54 | 55.73748 | 92.96122 | 39400 ft | 495 kts | 111° |
| 2026-04-28 21:55 | 55.71083 | 93.07391 | 39409 ft | 494 kts | 111° |
| 2026-04-28 21:55 | 55.68411 | 93.18629 | 39411 ft | 494 kts | 111° |
| 2026-04-28 21:56 | 55.65753 | 93.29755 | 39404 ft | 494 kts | 111° |
| 2026-04-28 21:56 | 55.63048 | 93.41015 | 39426 ft | 494 kts | 111° |
| 2026-04-28 21:57 | 55.60344 | 93.52219 | 39423 ft | 496 kts | 111° |
| 2026-04-28 21:57 | 55.57638 | 93.63373 | 39425 ft | 497 kts | 111° |
| 2026-04-28 21:58 | 55.54893 | 93.74627 | 39423 ft | 499 kts | 111° |
| 2026-04-28 21:58 | 55.52134 | 93.85880 | 39429 ft | 500 kts | 112° |
| 2026-04-28 21:59 | 55.49362 | 93.97131 | 39437 ft | 500 kts | 112° |
| 2026-04-28 22:00 | 55.45178 | 94.13998 | 39415 ft | 500 kts | 112° |
| 2026-04-28 22:00 | 55.42386 | 94.25183 | 39434 ft | 498 kts | 112° |
| 2026-04-28 22:01 | 55.39591 | 94.36326 | 39438 ft | 497 kts | 112° |
| 2026-04-28 22:01 | 55.36791 | 94.47434 | 39449 ft | 496 kts | 113° |
| 2026-04-28 22:02 | 55.33981 | 94.58529 | 39441 ft | 496 kts | 113° |
| 2026-04-28 22:02 | 55.31185 | 94.69517 | 39438 ft | 495 kts | 113° |
| 2026-04-28 22:03 | 55.28363 | 94.80573 | 39442 ft | 495 kts | 112° |
| 2026-04-28 22:03 | 55.26275 | 94.92030 | 39455 ft | 493 kts | 101° |
| 2026-04-28 22:04 | 55.25270 | 95.03894 | 39453 ft | 491 kts | 95° |
| 2026-04-28 22:04 | 55.24484 | 95.15800 | 39445 ft | 492 kts | 95° |
| 2026-04-28 22:05 | 55.23666 | 95.27725 | 39447 ft | 493 kts | 95° |
| 2026-04-28 22:05 | 55.22807 | 95.39658 | 39444 ft | 494 kts | 96° |
| 2026-04-28 22:06 | 55.21925 | 95.51601 | 39452 ft | 494 kts | 96° |
| 2026-04-28 22:06 | 55.21030 | 95.63556 | 39442 ft | 495 kts | 96° |
| 2026-04-28 22:07 | 55.20129 | 95.75438 | 39440 ft | 495 kts | 96° |
| 2026-04-28 22:07 | 55.19212 | 95.87398 | 39440 ft | 496 kts | 96° |
| 2026-04-28 22:08 | 55.18283 | 95.99352 | 39436 ft | 496 kts | 96° |
| 2026-04-28 22:08 | 55.17341 | 96.11321 | 39441 ft | 496 kts | 96° |
| 2026-04-28 22:09 | 55.16386 | 96.23283 | 39434 ft | 496 kts | 96° |
| 2026-04-28 22:09 | 55.15422 | 96.35223 | 39431 ft | 496 kts | 97° |
| 2026-04-28 22:10 | 55.14452 | 96.47086 | 39439 ft | 496 kts | 97° |
| 2026-04-28 22:10 | 55.13464 | 96.59024 | 39424 ft | 496 kts | 97° |
| 2026-04-28 22:11 | 55.12463 | 96.70972 | 39428 ft | 496 kts | 97° |
| 2026-04-28 22:11 | 55.11450 | 96.82906 | 39428 ft | 497 kts | 97° |
| 2026-04-28 22:12 | 55.10425 | 96.94850 | 39431 ft | 497 kts | 97° |
| 2026-04-28 22:12 | 55.09389 | 97.06801 | 39420 ft | 498 kts | 97° |
| 2026-04-28 22:13 | 55.08311 | 97.18729 | 39421 ft | 498 kts | 98° |
| 2026-04-28 22:13 | 55.07163 | 97.30653 | 39420 ft | 498 kts | 98° |
| 2026-04-28 22:14 | 55.06003 | 97.42569 | 39423 ft | 498 kts | 98° |
| 2026-04-28 22:14 | 55.04841 | 97.54480 | 39421 ft | 498 kts | 98° |
| 2026-04-28 22:15 | 55.03679 | 97.66312 | 39423 ft | 498 kts | 99° |
| 2026-04-28 22:15 | 55.02496 | 97.78233 | 39423 ft | 498 kts | 99° |
| 2026-04-28 22:16 | 55.01301 | 97.90144 | 39405 ft | 498 kts | 99° |
| 2026-04-28 22:16 | 55.00096 | 98.02037 | 39411 ft | 498 kts | 99° |
| 2026-04-28 22:17 | 54.98878 | 98.13929 | 39400 ft | 498 kts | 99° |
| 2026-04-28 22:17 | 54.97657 | 98.25725 | 39409 ft | 499 kts | 99° |
| 2026-04-28 22:18 | 54.96416 | 98.37611 | 39397 ft | 499 kts | 100° |
| 2026-04-28 22:18 | 54.95160 | 98.49517 | 39410 ft | 500 kts | 100° |
| 2026-04-28 22:19 | 54.93891 | 98.61425 | 39397 ft | 501 kts | 100° |
| 2026-04-28 22:19 | 54.92610 | 98.73330 | 39397 ft | 501 kts | 100° |
| 2026-04-28 22:20 | 54.91315 | 98.85254 | 39383 ft | 502 kts | 100° |
| 2026-04-28 22:20 | 54.90009 | 98.97177 | 39383 ft | 502 kts | 101° |
| 2026-04-28 22:21 | 54.88692 | 99.09028 | 39395 ft | 503 kts | 101° |
| 2026-04-28 22:21 | 54.87263 | 99.20928 | 39375 ft | 503 kts | 102° |
| 2026-04-28 22:22 | 54.85790 | 99.32795 | 39373 ft | 503 kts | 102° |
| 2026-04-28 22:22 | 54.84314 | 99.44664 | 39369 ft | 503 kts | 102° |
| 2026-04-28 22:23 | 54.82836 | 99.56545 | 39374 ft | 503 kts | 102° |
| 2026-04-28 22:23 | 54.81349 | 99.68412 | 39365 ft | 503 kts | 102° |
| 2026-04-28 22:24 | 54.79852 | 99.80266 | 39364 ft | 504 kts | 102° |
| 2026-04-28 22:24 | 54.78341 | 99.92124 | 39356 ft | 504 kts | 103° |
| 2026-04-28 22:25 | 54.76825 | 100.03918 | 39347 ft | 505 kts | 103° |
| 2026-04-28 22:25 | 54.75285 | 100.15793 | 39354 ft | 505 kts | 103° |
| 2026-04-28 22:26 | 54.73735 | 100.27654 | 39342 ft | 505 kts | 103° |
| 2026-04-28 22:26 | 54.72171 | 100.39527 | 39338 ft | 506 kts | 103° |
| 2026-04-28 22:27 | 54.70594 | 100.51394 | 39336 ft | 506 kts | 103° |
| 2026-04-28 22:27 | 54.69004 | 100.63266 | 39338 ft | 507 kts | 103° |
| 2026-04-28 22:28 | 54.67414 | 100.75047 | 39344 ft | 507 kts | 103° |
| 2026-04-28 22:28 | 54.65797 | 100.86930 | 39338 ft | 507 kts | 104° |
| 2026-04-28 22:29 | 54.64170 | 100.98792 | 39344 ft | 508 kts | 104° |
| 2026-04-28 22:29 | 54.62528 | 101.10664 | 39338 ft | 509 kts | 104° |
| 2026-04-28 22:30 | 54.60874 | 101.22536 | 39337 ft | 509 kts | 104° |
| 2026-04-28 22:30 | 54.59204 | 101.34427 | 39355 ft | 510 kts | 104° |
| 2026-04-28 22:31 | 54.57519 | 101.46332 | 39359 ft | 511 kts | 104° |
| 2026-04-28 22:31 | 54.55833 | 101.58152 | 39358 ft | 511 kts | 104° |
| 2026-04-28 22:32 | 54.54124 | 101.70040 | 39356 ft | 512 kts | 104° |
| 2026-04-28 22:32 | 54.52402 | 101.81934 | 39355 ft | 512 kts | 104° |
| 2026-04-28 22:33 | 54.50666 | 101.93830 | 39356 ft | 512 kts | 105° |
| 2026-04-28 22:33 | 54.48922 | 102.05694 | 39355 ft | 512 kts | 105° |
| 2026-04-28 22:34 | 54.47165 | 102.17554 | 39340 ft | 511 kts | 105° |
| 2026-04-28 22:34 | 54.45406 | 102.29338 | 39343 ft | 511 kts | 105° |
| 2026-04-28 22:35 | 54.43630 | 102.41152 | 39344 ft | 511 kts | 106° |
| 2026-04-28 22:35 | 54.41841 | 102.52966 | 39335 ft | 510 kts | 106° |
| 2026-04-28 22:36 | 54.40045 | 102.64741 | 39341 ft | 509 kts | 106° |
| 2026-04-28 22:36 | 54.38242 | 102.76490 | 39328 ft | 509 kts | 106° |
| 2026-04-28 22:37 | 54.36440 | 102.88213 | 39330 ft | 509 kts | 106° |
| 2026-04-28 22:37 | 54.34645 | 102.99954 | 39319 ft | 509 kts | 106° |
| 2026-04-28 22:38 | 54.32834 | 103.11685 | 39312 ft | 508 kts | 108° |
| 2026-04-28 22:38 | 54.31546 | 103.17176 | 39298 ft | 502 kts | 124° |
| 2026-04-28 22:38 | 54.29422 | 103.21828 | 39326 ft | 494 kts | 140° |
| 2026-04-28 22:38 | 54.26747 | 103.25459 | 39290 ft | 488 kts | 154° |
| 2026-04-28 22:39 | 54.23704 | 103.27862 | 39315 ft | 479 kts | 163° |
| 2026-04-28 22:39 | 54.17467 | 103.32080 | 39310 ft | 485 kts | 162° |
| 2026-04-28 22:40 | 54.11197 | 103.36472 | 39302 ft | 489 kts | 162° |
| 2026-04-28 22:40 | 54.04892 | 103.40953 | 39177 ft | 495 kts | 162° |
| 2026-04-28 22:40 | 54.01672 | 103.43237 | 38403 ft | 505 kts | 162° |
| 2026-04-28 22:41 | 53.98446 | 103.45529 | 37720 ft | 501 kts | 162° |
| 2026-04-28 22:41 | 53.95232 | 103.47810 | 36936 ft | 499 kts | 162° |
| 2026-04-28 22:41 | 53.92039 | 103.50070 | 36199 ft | 496 kts | 163° |
| 2026-04-28 22:41 | 53.88857 | 103.52317 | 35401 ft | 495 kts | 163° |
| 2026-04-28 22:42 | 53.86754 | 103.53800 | 34842 ft | 494 kts | 163° |
| 2026-04-28 22:42 | 53.83578 | 103.56032 | 34014 ft | 492 kts | 163° |
| 2026-04-28 22:42 | 53.80418 | 103.58249 | 33031 ft | 491 kts | 164° |
| 2026-04-28 22:42 | 53.77269 | 103.60455 | 32003 ft | 490 kts | 164° |
| 2026-04-28 22:43 | 53.74122 | 103.62656 | 31001 ft | 489 kts | 165° |
| 2026-04-28 22:43 | 53.71002 | 103.64837 | 30253 ft | 481 kts | 165° |
| 2026-04-28 22:43 | 53.67930 | 103.66984 | 29450 ft | 474 kts | 165° |
| 2026-04-28 22:44 | 53.56251 | 103.75097 | 26884 ft | 451 kts | 165° |
| 2026-04-28 22:44 | 53.53363 | 103.77094 | 26248 ft | 447 kts | 165° |
| 2026-04-28 22:45 | 53.50498 | 103.79071 | 25612 ft | 443 kts | 165° |
| 2026-04-28 22:46 | 53.38360 | 103.87450 | 22851 ft | 432 kts | 162° |
| 2026-04-28 22:46 | 53.30993 | 103.94207 | 21158 ft | 425 kts | 156° |
| 2026-04-28 22:47 | 53.28396 | 103.96665 | 20553 ft | 421 kts | 156° |
| 2026-04-28 22:47 | 53.25896 | 103.99013 | 19985 ft | 418 kts | 156° |
| 2026-04-28 22:47 | 53.23364 | 104.01377 | 19416 ft | 415 kts | 156° |
| 2026-04-28 22:47 | 53.20848 | 104.03719 | 18837 ft | 413 kts | 156° |
| 2026-04-28 22:48 | 53.18346 | 104.06042 | 18223 ft | 411 kts | 155° |
| 2026-04-28 22:48 | 53.15860 | 104.08349 | 17586 ft | 408 kts | 155° |
| 2026-04-28 22:48 | 53.13388 | 104.10640 | 16997 ft | 405 kts | 155° |
| 2026-04-28 22:48 | 53.10926 | 104.12920 | 16423 ft | 402 kts | 155° |
| 2026-04-28 22:49 | 53.08484 | 104.15165 | 15869 ft | 400 kts | 155° |
| 2026-04-28 22:49 | 53.06047 | 104.17380 | 15290 ft | 398 kts | 155° |
| 2026-04-28 22:49 | 53.03622 | 104.19572 | 14737 ft | 396 kts | 154° |
| 2026-04-28 22:49 | 53.01212 | 104.21749 | 14184 ft | 394 kts | 154° |
| 2026-04-28 22:50 | 52.98803 | 104.23923 | 13564 ft | 393 kts | 154° |
| 2026-04-28 22:50 | 52.96401 | 104.26091 | 12983 ft | 391 kts | 153° |
| 2026-04-28 22:50 | 52.94015 | 104.28244 | 12420 ft | 389 kts | 153° |
| 2026-04-28 22:50 | 52.91668 | 104.30359 | 11863 ft | 388 kts | 153° |
| 2026-04-28 22:51 | 52.89301 | 104.32491 | 11317 ft | 386 kts | 153° |
| 2026-04-28 22:51 | 52.86968 | 104.34590 | 11058 ft | 376 kts | 153° |
| 2026-04-28 22:51 | 52.84705 | 104.36626 | 10904 ft | 364 kts | 153° |
| 2026-04-28 22:51 | 52.82513 | 104.38594 | 10744 ft | 354 kts | 153° |
| 2026-04-28 22:52 | 52.80377 | 104.40510 | 10613 ft | 344 kts | 152° |
| 2026-04-28 22:52 | 52.78299 | 104.42370 | 10471 ft | 335 kts | 152° |
| 2026-04-28 22:52 | 52.76273 | 104.44182 | 10312 ft | 328 kts | 152° |
| 2026-04-28 22:52 | 52.74278 | 104.45933 | 10104 ft | 323 kts | 154° |
| 2026-04-28 22:53 | 52.72250 | 104.47425 | 9892 ft | 317 kts | 158° |
| 2026-04-28 22:53 | 52.70224 | 104.48797 | 9662 ft | 310 kts | 158° |
| 2026-04-28 22:53 | 52.68259 | 104.50121 | 9556 ft | 301 kts | 158° |
| 2026-04-28 22:53 | 52.66350 | 104.51421 | 9414 ft | 293 kts | 158° |
| 2026-04-28 22:54 | 52.64485 | 104.52707 | 9166 ft | 288 kts | 157° |
| 2026-04-28 22:54 | 52.62639 | 104.53987 | 8855 ft | 287 kts | 157° |
| 2026-04-28 22:54 | 52.60799 | 104.55265 | 8507 ft | 287 kts | 156° |
| 2026-04-28 22:54 | 52.58962 | 104.56540 | 8181 ft | 287 kts | 156° |
| 2026-04-28 22:55 | 52.57124 | 104.57817 | 7885 ft | 286 kts | 156° |
| 2026-04-28 22:55 | 52.55296 | 104.59085 | 7618 ft | 284 kts | 156° |
| 2026-04-28 22:55 | 52.53499 | 104.60329 | 7318 ft | 283 kts | 155° |
| 2026-04-28 22:55 | 52.51683 | 104.61587 | 7033 ft | 283 kts | 155° |
| 2026-04-28 22:56 | 52.49875 | 104.62839 | 6777 ft | 282 kts | 155° |
| 2026-04-28 22:56 | 52.48068 | 104.64088 | 6466 ft | 282 kts | 155° |
| 2026-04-28 22:56 | 52.46269 | 104.65331 | 6195 ft | 279 kts | 155° |
| 2026-04-28 22:56 | 52.44495 | 104.66556 | 6059 ft | 275 kts | 155° |
| 2026-04-28 22:57 | 52.42735 | 104.67770 | 5909 ft | 275 kts | 155° |
| 2026-04-28 22:57 | 52.40963 | 104.68991 | 5804 ft | 277 kts | 155° |
| 2026-04-28 22:57 | 52.39175 | 104.70224 | 5693 ft | 279 kts | 155° |
| 2026-04-28 22:57 | 52.37384 | 104.71456 | 5570 ft | 279 kts | 155° |
| 2026-04-28 22:58 | 52.35599 | 104.72683 | 5456 ft | 277 kts | 155° |
| 2026-04-28 22:58 | 52.33830 | 104.73899 | 5333 ft | 275 kts | 155° |
| 2026-04-28 22:58 | 52.32068 | 104.75107 | 5204 ft | 274 kts | 155° |
| 2026-04-28 22:58 | 52.30301 | 104.76318 | 5104 ft | 277 kts | 156° |
| 2026-04-28 22:59 | 52.28501 | 104.77313 | 4963 ft | 279 kts | 173° |
| 2026-04-28 22:59 | 52.26599 | 104.76928 | 4850 ft | 276 kts | 207° |
| 2026-04-28 22:59 | 52.25062 | 104.75168 | 4760 ft | 266 kts | 229° |
| 2026-04-28 22:59 | 52.23750 | 104.73031 | 4659 ft | 268 kts | 230° |
| 2026-04-28 23:00 | 52.22427 | 104.70885 | 4514 ft | 264 kts | 230° |
| 2026-04-28 23:00 | 52.21146 | 104.68819 | 4395 ft | 255 kts | 230° |
| 2026-04-28 23:00 | 52.20063 | 104.66698 | 4288 ft | 228 kts | 255° |
| 2026-04-28 23:00 | 52.19968 | 104.64419 | 4281 ft | 185 kts | 300° |
| 2026-04-28 23:01 | 52.20539 | 104.62635 | 4344 ft | 180 kts | 301° |
| 2026-04-28 23:01 | 52.21028 | 104.60821 | 4314 ft | 166 kts | 300° |
| 2026-04-28 23:01 | 52.21448 | 104.59187 | 4277 ft | 149 kts | 301° |
| 2026-04-28 23:01 | 52.21881 | 104.57578 | 4066 ft | 159 kts | 300° |
| 2026-04-28 23:02 | 52.22314 | 104.55945 | 3836 ft | 157 kts | 300° |
| 2026-04-28 23:02 | 52.22741 | 104.54347 | 3668 ft | 153 kts | 301° |
| 2026-04-28 23:02 | 52.23165 | 104.52763 | 3423 ft | 147 kts | 300° |
| 2026-04-28 23:02 | 52.23559 | 104.51290 | 3188 ft | 137 kts | 299° |
| 2026-04-28 23:03 | 52.23929 | 104.49901 | 2994 ft | 132 kts | 299° |
| 2026-04-28 23:03 | 52.24291 | 104.48556 | 2770 ft | 129 kts | 297° |
| 2026-04-28 23:03 | 52.24648 | 104.47212 | 2561 ft | 132 kts | 295° |
| 2026-04-28 23:03 | 52.25013 | 104.45840 | 2378 ft | 134 kts | 295° |
| 2026-04-28 23:04 | 52.25388 | 104.44427 | 2144 ft | 135 kts | 295° |
| 2026-04-28 23:04 | 52.26158 | 104.41544 | 1727 ft | 139 kts | 294° |
| 2026-04-28 23:04 | 52.26523 | 104.40187 | 1682 ft | 119 kts | 294° |
| 2026-04-28 23:05 | 52.26789 | 104.39188 | 1664 ft | 69 kts | 294° |
| 2026-04-28 23:05 | 52.26909 | 104.38748 | 1649 ft | 16 kts | 294° |
| 2026-04-28 23:05 | 52.26930 | 104.38672 | 1648 ft | 8 kts | 294° |
| 2026-04-28 23:05 | 52.26958 | 104.38568 | 1646 ft | 11 kts | 294° |
| 2026-04-28 23:06 | 52.27001 | 104.38413 | 1643 ft | 16 kts | 294° |
| 2026-04-28 23:06 | 52.27044 | 104.38253 | 1643 ft | 16 kts | 294° |
| 2026-04-28 23:06 | 52.27086 | 104.38090 | 1642 ft | 16 kts | 291° |
| 2026-04-28 23:06 | 52.27125 | 104.37925 | 1642 ft | 16 kts | 291° |
| 2026-04-28 23:07 | 52.27167 | 104.37763 | 1638 ft | 16 kts | 293° |
| 2026-04-28 23:07 | 52.27167 | 104.37598 | 1637 ft | 15 kts | 238° |
| 2026-04-28 23:07 | 52.27106 | 104.37456 | 1636 ft | 15 kts | 234° |
| 2026-04-28 23:07 | 52.27044 | 104.37313 | 1635 ft | 15 kts | 235° |
| 2026-04-28 23:08 | 52.26987 | 104.37172 | 1639 ft | 11 kts | 256° |
| 2026-04-28 23:08 | 52.27008 | 104.37048 | 1636 ft | 11 kts | 289° |
| 2026-04-28 23:08 | 52.27035 | 104.36927 | 1634 ft | 11 kts | 290° |
| 2026-04-28 23:08 | 52.27057 | 104.36832 | 1639 ft | 0 kts | 290° |
| 2026-04-28 23:10 | 52.27057 | 104.36830 | 1639 ft | 2 kts | 290° |
| 2026-04-28 23:10 | 52.27079 | 104.36735 | 1635 ft | 13 kts | 290° |
| 2026-04-28 23:11 | 52.27111 | 104.36597 | 1638 ft | 13 kts | 291° |
| 2026-04-28 23:11 | 52.27143 | 104.36458 | 1637 ft | 13 kts | 289° |
| 2026-04-28 23:11 | 52.27173 | 104.36319 | 1637 ft | 13 kts | 289° |
| 2026-04-28 23:11 | 52.27184 | 104.36173 | 1636 ft | 13 kts | 268° |
| 2026-04-28 23:12 | 52.27182 | 104.36025 | 1634 ft | 13 kts | 269° |
| 2026-04-28 23:12 | 52.27180 | 104.35877 | 1634 ft | 13 kts | 269° |
| 2026-04-28 23:12 | 52.27184 | 104.35731 | 1636 ft | 12 kts | 276° |
| 2026-04-28 23:12 | 52.27188 | 104.35603 | 1634 ft | 11 kts | 269° |
| 2026-04-28 23:13 | 52.27170 | 104.35481 | 1638 ft | 11 kts | 239° |
| 2026-04-28 23:13 | 52.27125 | 104.35387 | 1634 ft | 7 kts | 256° |
| 2026-04-28 23:13 | 52.27145 | 104.35321 | 1637 ft | 7 kts | 334° |
| 2026-04-28 23:13 | 52.27146 | 104.35319 | 1637 ft | 0 kts | 334° |
| 2026-04-28 23:14 | 52.27147 | 104.35319 | 1636 ft | 1 kts | 334° |
| 2026-04-28 23:14 | 52.27162 | 104.35307 | 1638 ft | 3 kts | 334° |
| 2026-04-28 23:15 | 52.27181 | 104.35307 | 1638 ft | 3 kts | 13° |
| 2026-04-28 23:15 | 52.27196 | 104.35328 | 1635 ft | 3 kts | 55° |
| 2026-04-28 23:15 | 52.27201 | 104.35361 | 1640 ft | 2 kts | 86° |
| 2026-04-28 23:16 | 52.27203 | 104.35383 | 1639 ft | 0 kts | 88° |
| 2026-04-28 23:16 | 52.27203 | 104.35380 | 1639 ft | 0 kts | 88° |
| 2026-04-28 23:16 | 52.27203 | 104.35385 | 1639 ft | 1 kts | 88° |
| 2026-04-28 23:17 | 52.27203 | 104.35366 | 1640 ft | 0 kts | 88° |